sensor_id;sensor_type;location;lat;lon;timestamp;temperature;humidity
13806;DHT22;6974;53.606;9.872;2023-04-06T00:00:55;5.30;99.90
13806;DHT22;6974;53.606;9.872;2023-04-06T00:03:23;5.20;99.90
13806;DHT22;6974;53.606;9.872;2023-04-06T00:05:52;5.20;99.90
13806;DHT22;6974;53.606;9.872;2023-04-06T00:08:19;5.10;99.90
13806;DHT22;6974;53.606;9.872;2023-04-06T00:10:49;5.00;99.90
13806;DHT22;6974;53.606;9.872;2023-04-06T00:13:16;5.00;99.90
13806;DHT22;6974;53.606;9.872;2023-04-06T00:15:43;4.90;99.90
13806;DHT22;6974;53.606;9.872;2023-04-06T00:18:11;4.90;99.90
13806;DHT22;6974;53.606;9.872;2023-04-06T00:20:40;4.90;99.90
13806;DHT22;6974;53.606;9.872;2023-04-06T00:23:08;4.80;99.90
13806;DHT22;6974;53.606;9.872;2023-04-06T00:25:35;4.80;99.90
13806;DHT22;6974;53.606;9.872;2023-04-06T00:28:03;4.90;99.90
13806;DHT22;6974;53.606;9.872;2023-04-06T00:30:30;4.80;99.90
13806;DHT22;6974;53.606;9.872;2023-04-06T00:32:57;4.80;99.90
13806;DHT22;6974;53.606;9.872;2023-04-06T00:35:25;4.70;99.90
13806;DHT22;6974;53.606;9.872;2023-04-06T00:37:52;4.60;99.90
13806;DHT22;6974;53.606;9.872;2023-04-06T00:40:21;4.70;99.90
13806;DHT22;6974;53.606;9.872;2023-04-06T00:42:48;4.70;99.90
13806;DHT22;6974;53.606;9.872;2023-04-06T00:45:16;4.70;99.90
13806;DHT22;6974;53.606;9.872;2023-04-06T00:47:44;4.70;99.90
13806;DHT22;6974;53.606;9.872;2023-04-06T00:50:12;4.70;99.90
13806;DHT22;6974;53.606;9.872;2023-04-06T00:52:39;4.60;99.90
13806;DHT22;6974;53.606;9.872;2023-04-06T00:55:07;4.60;99.90
13806;DHT22;6974;53.606;9.872;2023-04-06T00:57:37;4.60;99.90
13806;DHT22;6974;53.606;9.872;2023-04-06T01:00:05;4.60;99.90
13806;DHT22;6974;53.606;9.872;2023-04-06T01:02:33;4.60;99.90
13806;DHT22;6974;53.606;9.872;2023-04-06T01:05:00;4.60;99.90
13806;DHT22;6974;53.606;9.872;2023-04-06T01:07:27;4.60;99.90
13806;DHT22;6974;53.606;9.872;2023-04-06T01:09:55;4.50;99.90
13806;DHT22;6974;53.606;9.872;2023-04-06T01:12:22;4.60;99.90
13806;DHT22;6974;53.606;9.872;2023-04-06T01:14:52;4.50;99.90
13806;DHT22;6974;53.606;9.872;2023-04-06T01:17:19;4.50;99.90
13806;DHT22;6974;53.606;9.872;2023-04-06T01:19:47;4.50;99.90
13806;DHT22;6974;53.606;9.872;2023-04-06T01:22:17;4.40;99.90
13806;DHT22;6974;53.606;9.872;2023-04-06T01:24:44;4.30;99.90
13806;DHT22;6974;53.606;9.872;2023-04-06T01:27:12;4.30;99.90
13806;DHT22;6974;53.606;9.872;2023-04-06T01:29:39;4.30;99.90
13806;DHT22;6974;53.606;9.872;2023-04-06T01:32:08;4.30;99.90
13806;DHT22;6974;53.606;9.872;2023-04-06T01:34:35;4.30;99.90
13806;DHT22;6974;53.606;9.872;2023-04-06T01:37:03;4.30;99.90
13806;DHT22;6974;53.606;9.872;2023-04-06T01:39:31;4.30;99.90
13806;DHT22;6974;53.606;9.872;2023-04-06T01:42:00;4.30;99.90
13806;DHT22;6974;53.606;9.872;2023-04-06T01:44:27;4.30;99.90
13806;DHT22;6974;53.606;9.872;2023-04-06T01:46:56;4.40;99.90
13806;DHT22;6974;53.606;9.872;2023-04-06T01:49:23;4.30;99.90
13806;DHT22;6974;53.606;9.872;2023-04-06T01:51:51;4.30;99.90
13806;DHT22;6974;53.606;9.872;2023-04-06T01:54:19;4.40;99.90
13806;DHT22;6974;53.606;9.872;2023-04-06T01:56:48;4.40;99.90
13806;DHT22;6974;53.606;9.872;2023-04-06T01:59:18;4.40;99.90
13806;DHT22;6974;53.606;9.872;2023-04-06T02:01:45;4.40;99.90
13806;DHT22;6974;53.606;9.872;2023-04-06T02:04:12;4.40;99.90
13806;DHT22;6974;53.606;9.872;2023-04-06T02:06:40;4.40;99.90
13806;DHT22;6974;53.606;9.872;2023-04-06T02:09:08;4.30;99.90
13806;DHT22;6974;53.606;9.872;2023-04-06T02:11:35;4.30;99.90
13806;DHT22;6974;53.606;9.872;2023-04-06T02:14:04;4.30;99.90
13806;DHT22;6974;53.606;9.872;2023-04-06T02:16:31;4.20;99.90
13806;DHT22;6974;53.606;9.872;2023-04-06T02:18:58;4.20;99.90
13806;DHT22;6974;53.606;9.872;2023-04-06T02:21:26;4.30;99.90
13806;DHT22;6974;53.606;9.872;2023-04-06T02:23:53;4.20;99.90
13806;DHT22;6974;53.606;9.872;2023-04-06T02:26:20;4.20;99.90
13806;DHT22;6974;53.606;9.872;2023-04-06T02:28:48;4.20;99.90
13806;DHT22;6974;53.606;9.872;2023-04-06T02:31:16;4.10;99.90
13806;DHT22;6974;53.606;9.872;2023-04-06T02:33:45;4.10;99.90
13806;DHT22;6974;53.606;9.872;2023-04-06T02:36:12;4.20;99.90
13806;DHT22;6974;53.606;9.872;2023-04-06T02:38:39;4.20;99.90
13806;DHT22;6974;53.606;9.872;2023-04-06T02:41:07;4.20;99.90
13806;DHT22;6974;53.606;9.872;2023-04-06T02:43:35;4.20;99.90
13806;DHT22;6974;53.606;9.872;2023-04-06T02:46:02;4.10;99.90
13806;DHT22;6974;53.606;9.872;2023-04-06T02:48:31;4.10;99.90
13806;DHT22;6974;53.606;9.872;2023-04-06T02:51:01;4.00;99.90
13806;DHT22;6974;53.606;9.872;2023-04-06T02:53:28;4.00;99.90
13806;DHT22;6974;53.606;9.872;2023-04-06T02:55:56;4.00;99.90
13806;DHT22;6974;53.606;9.872;2023-04-06T02:58:22;4.00;99.90
13806;DHT22;6974;53.606;9.872;2023-04-06T03:00:49;4.00;99.90
13806;DHT22;6974;53.606;9.872;2023-04-06T03:03:16;4.00;99.90
13806;DHT22;6974;53.606;9.872;2023-04-06T03:05:45;4.00;99.90
13806;DHT22;6974;53.606;9.872;2023-04-06T03:08:12;4.00;99.90
13806;DHT22;6974;53.606;9.872;2023-04-06T03:10:39;4.00;99.90
13806;DHT22;6974;53.606;9.872;2023-04-06T03:13:06;4.00;99.90
13806;DHT22;6974;53.606;9.872;2023-04-06T03:15:33;3.90;99.90
13806;DHT22;6974;53.606;9.872;2023-04-06T03:18:00;3.90;99.90
13806;DHT22;6974;53.606;9.872;2023-04-06T03:20:27;4.00;99.90
13806;DHT22;6974;53.606;9.872;2023-04-06T03:22:55;4.00;99.90
13806;DHT22;6974;53.606;9.872;2023-04-06T03:25:22;4.00;99.90
13806;DHT22;6974;53.606;9.872;2023-04-06T03:27:49;4.00;99.90
13806;DHT22;6974;53.606;9.872;2023-04-06T03:30:16;4.00;99.90
13806;DHT22;6974;53.606;9.872;2023-04-06T03:32:44;4.00;99.90
13806;DHT22;6974;53.606;9.872;2023-04-06T03:35:11;4.00;99.90
13806;DHT22;6974;53.606;9.872;2023-04-06T03:37:38;3.90;99.90
13806;DHT22;6974;53.606;9.872;2023-04-06T03:40:07;4.00;99.90
13806;DHT22;6974;53.606;9.872;2023-04-06T03:42:34;3.90;99.90
13806;DHT22;6974;53.606;9.872;2023-04-06T03:45:01;3.90;99.90
13806;DHT22;6974;53.606;9.872;2023-04-06T03:47:28;3.90;99.90
13806;DHT22;6974;53.606;9.872;2023-04-06T03:49:55;4.00;99.90
13806;DHT22;6974;53.606;9.872;2023-04-06T03:52:22;4.00;99.90
13806;DHT22;6974;53.606;9.872;2023-04-06T03:54:49;3.90;99.90
13806;DHT22;6974;53.606;9.872;2023-04-06T03:57:17;3.90;99.90
13806;DHT22;6974;53.606;9.872;2023-04-06T03:59:44;4.00;99.90
13806;DHT22;6974;53.606;9.872;2023-04-06T04:02:11;4.00;99.90
13806;DHT22;6974;53.606;9.872;2023-04-06T04:04:38;4.00;99.90
13806;DHT22;6974;53.606;9.872;2023-04-06T04:07:05;4.10;99.90
13806;DHT22;6974;53.606;9.872;2023-04-06T04:09:32;4.10;99.90
13806;DHT22;6974;53.606;9.872;2023-04-06T04:12:00;4.00;99.90
13806;DHT22;6974;53.606;9.872;2023-04-06T04:14:28;4.00;99.90
13806;DHT22;6974;53.606;9.872;2023-04-06T04:16:55;4.00;99.90
13806;DHT22;6974;53.606;9.872;2023-04-06T04:19:22;4.00;99.90
13806;DHT22;6974;53.606;9.872;2023-04-06T04:21:49;4.00;99.90
13806;DHT22;6974;53.606;9.872;2023-04-06T04:24:15;4.00;99.90
13806;DHT22;6974;53.606;9.872;2023-04-06T04:26:42;3.90;99.90
13806;DHT22;6974;53.606;9.872;2023-04-06T04:29:09;4.00;99.90
13806;DHT22;6974;53.606;9.872;2023-04-06T04:31:38;4.00;99.90
13806;DHT22;6974;53.606;9.872;2023-04-06T04:34:05;4.00;99.90
13806;DHT22;6974;53.606;9.872;2023-04-06T04:36:33;4.00;99.90
13806;DHT22;6974;53.606;9.872;2023-04-06T04:39:00;4.00;99.90
13806;DHT22;6974;53.606;9.872;2023-04-06T04:41:27;4.00;99.90
13806;DHT22;6974;53.606;9.872;2023-04-06T04:43:54;4.00;99.90
13806;DHT22;6974;53.606;9.872;2023-04-06T04:46:21;4.00;99.90
13806;DHT22;6974;53.606;9.872;2023-04-06T04:48:50;4.00;99.90
13806;DHT22;6974;53.606;9.872;2023-04-06T04:51:17;4.00;99.90
13806;DHT22;6974;53.606;9.872;2023-04-06T04:53:45;4.00;99.90
13806;DHT22;6974;53.606;9.872;2023-04-06T04:56:12;4.00;99.90
13806;DHT22;6974;53.606;9.872;2023-04-06T04:58:40;4.20;99.90
13806;DHT22;6974;53.606;9.872;2023-04-06T05:01:07;4.30;99.90
13806;DHT22;6974;53.606;9.872;2023-04-06T05:03:34;4.40;99.90
13806;DHT22;6974;53.606;9.872;2023-04-06T05:06:03;4.40;99.90
13806;DHT22;6974;53.606;9.872;2023-04-06T05:08:30;4.40;99.90
13806;DHT22;6974;53.606;9.872;2023-04-06T05:10:58;4.30;99.90
13806;DHT22;6974;53.606;9.872;2023-04-06T05:13:25;4.30;99.90
13806;DHT22;6974;53.606;9.872;2023-04-06T05:15:52;4.20;99.90
13806;DHT22;6974;53.606;9.872;2023-04-06T05:18:22;4.20;99.90
13806;DHT22;6974;53.606;9.872;2023-04-06T05:20:49;4.20;99.90
13806;DHT22;6974;53.606;9.872;2023-04-06T05:23:18;4.20;99.90
13806;DHT22;6974;53.606;9.872;2023-04-06T05:25:45;4.10;99.90
13806;DHT22;6974;53.606;9.872;2023-04-06T05:28:13;4.10;99.90
13806;DHT22;6974;53.606;9.872;2023-04-06T05:30:42;4.10;99.90
13806;DHT22;6974;53.606;9.872;2023-04-06T05:33:09;4.10;99.90
13806;DHT22;6974;53.606;9.872;2023-04-06T05:35:36;4.10;99.90
13806;DHT22;6974;53.606;9.872;2023-04-06T05:38:07;4.10;99.90
13806;DHT22;6974;53.606;9.872;2023-04-06T05:40:37;4.20;99.90
13806;DHT22;6974;53.606;9.872;2023-04-06T05:43:06;4.20;99.90
13806;DHT22;6974;53.606;9.872;2023-04-06T05:45:34;4.20;99.90
13806;DHT22;6974;53.606;9.872;2023-04-06T05:48:02;4.20;99.90
13806;DHT22;6974;53.606;9.872;2023-04-06T05:50:30;4.20;99.90
13806;DHT22;6974;53.606;9.872;2023-04-06T05:52:57;4.30;99.90
13806;DHT22;6974;53.606;9.872;2023-04-06T05:55:24;4.40;99.90
13806;DHT22;6974;53.606;9.872;2023-04-06T05:57:53;4.40;99.90
13806;DHT22;6974;53.606;9.872;2023-04-06T06:00:20;4.50;99.90
13806;DHT22;6974;53.606;9.872;2023-04-06T06:02:47;4.60;99.90
13806;DHT22;6974;53.606;9.872;2023-04-06T06:05:15;4.60;99.90
13806;DHT22;6974;53.606;9.872;2023-04-06T06:07:43;4.70;99.90
13806;DHT22;6974;53.606;9.872;2023-04-06T06:10:10;4.70;99.90
13806;DHT22;6974;53.606;9.872;2023-04-06T06:12:37;4.80;99.90
13806;DHT22;6974;53.606;9.872;2023-04-06T06:15:07;4.80;99.90
13806;DHT22;6974;53.606;9.872;2023-04-06T06:17:34;4.80;99.90
13806;DHT22;6974;53.606;9.872;2023-04-06T06:20:02;4.90;99.90
13806;DHT22;6974;53.606;9.872;2023-04-06T06:22:29;5.00;99.90
13806;DHT22;6974;53.606;9.872;2023-04-06T06:24:56;5.00;99.90
13806;DHT22;6974;53.606;9.872;2023-04-06T06:27:23;5.10;99.90
13806;DHT22;6974;53.606;9.872;2023-04-06T06:29:50;5.20;99.90
13806;DHT22;6974;53.606;9.872;2023-04-06T06:32:18;5.30;99.90
13806;DHT22;6974;53.606;9.872;2023-04-06T06:34:46;5.30;99.90
13806;DHT22;6974;53.606;9.872;2023-04-06T06:37:13;5.40;99.90
13806;DHT22;6974;53.606;9.872;2023-04-06T06:39:40;5.50;99.90
13806;DHT22;6974;53.606;9.872;2023-04-06T06:42:08;5.60;99.90
13806;DHT22;6974;53.606;9.872;2023-04-06T06:44:35;5.60;99.90
13806;DHT22;6974;53.606;9.872;2023-04-06T06:47:02;5.70;99.90
13806;DHT22;6974;53.606;9.872;2023-04-06T06:49:31;5.80;99.90
13806;DHT22;6974;53.606;9.872;2023-04-06T06:51:58;5.90;99.90
13806;DHT22;6974;53.606;9.872;2023-04-06T06:54:25;6.00;99.90
13806;DHT22;6974;53.606;9.872;2023-04-06T06:56:52;6.00;99.90
13806;DHT22;6974;53.606;9.872;2023-04-06T06:59:21;6.10;99.90
13806;DHT22;6974;53.606;9.872;2023-04-06T07:01:49;6.10;99.90
13806;DHT22;6974;53.606;9.872;2023-04-06T07:04:17;6.20;99.90
13806;DHT22;6974;53.606;9.872;2023-04-06T07:06:46;6.40;99.90
13806;DHT22;6974;53.606;9.872;2023-04-06T07:09:13;6.40;99.90
13806;DHT22;6974;53.606;9.872;2023-04-06T07:11:40;6.60;99.90
13806;DHT22;6974;53.606;9.872;2023-04-06T07:14:07;6.70;99.90
13806;DHT22;6974;53.606;9.872;2023-04-06T07:16:34;6.80;99.90
13806;DHT22;6974;53.606;9.872;2023-04-06T07:19:01;6.80;99.90
13806;DHT22;6974;53.606;9.872;2023-04-06T07:21:28;6.90;99.90
13806;DHT22;6974;53.606;9.872;2023-04-06T07:23:57;6.90;99.90
13806;DHT22;6974;53.606;9.872;2023-04-06T07:26:25;7.00;99.90
13806;DHT22;6974;53.606;9.872;2023-04-06T07:28:52;7.10;99.90
13806;DHT22;6974;53.606;9.872;2023-04-06T07:31:20;7.20;99.90
13806;DHT22;6974;53.606;9.872;2023-04-06T07:33:47;7.20;99.90
13806;DHT22;6974;53.606;9.872;2023-04-06T07:36:15;7.30;99.90
13806;DHT22;6974;53.606;9.872;2023-04-06T07:38:42;7.40;99.90
13806;DHT22;6974;53.606;9.872;2023-04-06T07:41:13;7.40;99.90
13806;DHT22;6974;53.606;9.872;2023-04-06T07:43:40;7.50;99.90
13806;DHT22;6974;53.606;9.872;2023-04-06T07:46:07;7.50;99.90
13806;DHT22;6974;53.606;9.872;2023-04-06T07:48:35;7.60;99.90
13806;DHT22;6974;53.606;9.872;2023-04-06T07:51:04;7.70;99.90
13806;DHT22;6974;53.606;9.872;2023-04-06T07:53:32;7.70;99.90
13806;DHT22;6974;53.606;9.872;2023-04-06T07:55:59;7.80;99.90
13806;DHT22;6974;53.606;9.872;2023-04-06T07:58:28;7.80;99.90
13806;DHT22;6974;53.606;9.872;2023-04-06T08:00:55;7.90;99.90
13806;DHT22;6974;53.606;9.872;2023-04-06T08:03:23;8.00;99.90
13806;DHT22;6974;53.606;9.872;2023-04-06T08:05:51;8.00;99.90
13806;DHT22;6974;53.606;9.872;2023-04-06T08:08:19;8.00;99.90
13806;DHT22;6974;53.606;9.872;2023-04-06T08:10:47;8.10;99.90
13806;DHT22;6974;53.606;9.872;2023-04-06T08:13:14;8.10;99.90
13806;DHT22;6974;53.606;9.872;2023-04-06T08:15:43;8.20;99.90
13806;DHT22;6974;53.606;9.872;2023-04-06T08:18:10;8.30;99.90
13806;DHT22;6974;53.606;9.872;2023-04-06T08:20:37;8.40;99.90
13806;DHT22;6974;53.606;9.872;2023-04-06T08:23:05;8.40;99.90
13806;DHT22;6974;53.606;9.872;2023-04-06T08:25:35;8.40;99.90
13806;DHT22;6974;53.606;9.872;2023-04-06T08:28:03;8.50;99.90
13806;DHT22;6974;53.606;9.872;2023-04-06T08:30:30;8.60;99.90
13806;DHT22;6974;53.606;9.872;2023-04-06T08:32:59;8.60;99.90
13806;DHT22;6974;53.606;9.872;2023-04-06T08:35:27;8.70;99.90
13806;DHT22;6974;53.606;9.872;2023-04-06T08:37:54;8.70;99.90
13806;DHT22;6974;53.606;9.872;2023-04-06T08:40:21;8.70;99.90
13806;DHT22;6974;53.606;9.872;2023-04-06T08:42:50;8.80;99.90
13806;DHT22;6974;53.606;9.872;2023-04-06T08:45:19;8.80;99.90
13806;DHT22;6974;53.606;9.872;2023-04-06T08:47:47;8.90;99.90
13806;DHT22;6974;53.606;9.872;2023-04-06T08:50:17;8.90;99.90
13806;DHT22;6974;53.606;9.872;2023-04-06T08:52:47;9.00;99.90
13806;DHT22;6974;53.606;9.872;2023-04-06T08:55:15;9.10;99.90
13806;DHT22;6974;53.606;9.872;2023-04-06T08:57:42;9.30;99.90
13806;DHT22;6974;53.606;9.872;2023-04-06T09:00:10;9.40;99.90
13806;DHT22;6974;53.606;9.872;2023-04-06T09:02:39;9.40;99.90
13806;DHT22;6974;53.606;9.872;2023-04-06T09:05:08;9.40;99.90
13806;DHT22;6974;53.606;9.872;2023-04-06T09:07:36;9.50;99.90
13806;DHT22;6974;53.606;9.872;2023-04-06T09:10:04;9.60;99.90
13806;DHT22;6974;53.606;9.872;2023-04-06T09:12:32;9.70;99.90
13806;DHT22;6974;53.606;9.872;2023-04-06T09:15:00;9.90;99.90
13806;DHT22;6974;53.606;9.872;2023-04-06T09:17:29;10.00;99.90
13806;DHT22;6974;53.606;9.872;2023-04-06T09:19:58;10.20;99.90
13806;DHT22;6974;53.606;9.872;2023-04-06T09:22:34;10.30;99.90
13806;DHT22;6974;53.606;9.872;2023-04-06T09:25:03;10.50;99.90
13806;DHT22;6974;53.606;9.872;2023-04-06T09:27:31;10.70;99.90
13806;DHT22;6974;53.606;9.872;2023-04-06T09:30:05;11.00;99.90
13806;DHT22;6974;53.606;9.872;2023-04-06T09:32:32;11.20;99.90
13806;DHT22;6974;53.606;9.872;2023-04-06T09:35:06;11.40;99.90
13806;DHT22;6974;53.606;9.872;2023-04-06T09:37:33;11.50;99.90
13806;DHT22;6974;53.606;9.872;2023-04-06T09:40:06;11.60;99.90
13806;DHT22;6974;53.606;9.872;2023-04-06T09:42:34;11.70;99.90
13806;DHT22;6974;53.606;9.872;2023-04-06T09:45:02;11.80;99.90
13806;DHT22;6974;53.606;9.872;2023-04-06T09:47:30;12.00;99.90
13806;DHT22;6974;53.606;9.872;2023-04-06T09:49:59;12.10;99.90
13806;DHT22;6974;53.606;9.872;2023-04-06T09:52:27;12.20;99.90
13806;DHT22;6974;53.606;9.872;2023-04-06T09:54:58;12.40;99.90
13806;DHT22;6974;53.606;9.872;2023-04-06T09:57:31;12.40;99.90
13806;DHT22;6974;53.606;9.872;2023-04-06T10:00:03;12.60;99.90
13806;DHT22;6974;53.606;9.872;2023-04-06T10:02:39;12.70;99.90
13806;DHT22;6974;53.606;9.872;2023-04-06T10:05:09;12.80;99.90
13806;DHT22;6974;53.606;9.872;2023-04-06T10:07:39;12.90;99.90
13806;DHT22;6974;53.606;9.872;2023-04-06T10:10:07;13.00;99.90
13806;DHT22;6974;53.606;9.872;2023-04-06T10:12:36;13.00;99.90
13806;DHT22;6974;53.606;9.872;2023-04-06T10:15:04;13.20;99.90
13806;DHT22;6974;53.606;9.872;2023-04-06T10:17:31;13.30;99.90
13806;DHT22;6974;53.606;9.872;2023-04-06T10:20:02;13.50;99.90
13806;DHT22;6974;53.606;9.872;2023-04-06T10:22:35;13.60;99.90
13806;DHT22;6974;53.606;9.872;2023-04-06T10:25:04;13.60;99.90
13806;DHT22;6974;53.606;9.872;2023-04-06T10:27:32;13.60;99.90
13806;DHT22;6974;53.606;9.872;2023-04-06T10:30:05;13.60;99.90
13806;DHT22;6974;53.606;9.872;2023-04-06T10:32:34;13.30;99.90
13806;DHT22;6974;53.606;9.872;2023-04-06T10:35:09;13.40;99.90
13806;DHT22;6974;53.606;9.872;2023-04-06T10:37:47;13.50;99.90
13806;DHT22;6974;53.606;9.872;2023-04-06T10:40:19;13.50;99.90
13806;DHT22;6974;53.606;9.872;2023-04-06T10:42:46;13.60;99.90
13806;DHT22;6974;53.606;9.872;2023-04-06T10:45:23;13.80;99.90
13806;DHT22;6974;53.606;9.872;2023-04-06T10:47:52;14.10;99.90
13806;DHT22;6974;53.606;9.872;2023-04-06T10:50:20;14.30;99.90
13806;DHT22;6974;53.606;9.872;2023-04-06T10:52:47;14.50;99.80
13806;DHT22;6974;53.606;9.872;2023-04-06T10:55:26;14.60;99.50
13806;DHT22;6974;53.606;9.872;2023-04-06T10:57:53;14.80;99.10
13806;DHT22;6974;53.606;9.872;2023-04-06T11:00:22;14.80;98.80
13806;DHT22;6974;53.606;9.872;2023-04-06T11:02:49;14.90;98.70
13806;DHT22;6974;53.606;9.872;2023-04-06T11:05:16;15.00;98.00
13806;DHT22;6974;53.606;9.872;2023-04-06T11:07:44;15.10;96.90
13806;DHT22;6974;53.606;9.872;2023-04-06T11:10:11;15.10;96.90
13806;DHT22;6974;53.606;9.872;2023-04-06T11:12:38;15.10;97.10
13806;DHT22;6974;53.606;9.872;2023-04-06T11:15:06;15.10;96.50
13806;DHT22;6974;53.606;9.872;2023-04-06T11:17:35;15.10;96.80
13806;DHT22;6974;53.606;9.872;2023-04-06T11:20:09;15.10;95.70
13806;DHT22;6974;53.606;9.872;2023-04-06T11:22:36;15.10;96.30
13806;DHT22;6974;53.606;9.872;2023-04-06T11:25:06;15.10;95.70
13806;DHT22;6974;53.606;9.872;2023-04-06T11:27:33;15.30;96.50
13806;DHT22;6974;53.606;9.872;2023-04-06T11:30:02;15.30;95.20
13806;DHT22;6974;53.606;9.872;2023-04-06T11:32:29;15.20;94.60
13806;DHT22;6974;53.606;9.872;2023-04-06T11:35:19;15.40;96.90
13806;DHT22;6974;53.606;9.872;2023-04-06T11:37:47;15.60;95.00
13806;DHT22;6974;53.606;9.872;2023-04-06T11:40:15;15.60;95.60
13806;DHT22;6974;53.606;9.872;2023-04-06T11:42:42;15.60;94.70
13806;DHT22;6974;53.606;9.872;2023-04-06T11:45:18;15.70;95.30
13806;DHT22;6974;53.606;9.872;2023-04-06T11:47:45;15.90;94.30
13806;DHT22;6974;53.606;9.872;2023-04-06T11:50:14;16.00;93.60
13806;DHT22;6974;53.606;9.872;2023-04-06T11:52:42;16.00;92.10
13806;DHT22;6974;53.606;9.872;2023-04-06T11:55:13;16.10;93.10
13806;DHT22;6974;53.606;9.872;2023-04-06T11:57:41;16.10;92.10
13806;DHT22;6974;53.606;9.872;2023-04-06T12:00:09;16.10;91.70
13806;DHT22;6974;53.606;9.872;2023-04-06T12:02:36;15.90;90.50
13806;DHT22;6974;53.606;9.872;2023-04-06T12:05:05;16.10;92.70
13806;DHT22;6974;53.606;9.872;2023-04-06T12:07:34;16.10;92.80
13806;DHT22;6974;53.606;9.872;2023-04-06T12:10:02;16.20;92.20
13806;DHT22;6974;53.606;9.872;2023-04-06T12:12:29;16.30;92.50
13806;DHT22;6974;53.606;9.872;2023-04-06T12:14:57;16.00;91.30
13806;DHT22;6974;53.606;9.872;2023-04-06T12:17:25;15.90;90.30
13806;DHT22;6974;53.606;9.872;2023-04-06T12:19:52;15.90;91.20
13806;DHT22;6974;53.606;9.872;2023-04-06T12:22:19;15.90;92.00
13806;DHT22;6974;53.606;9.872;2023-04-06T12:24:47;15.90;91.80
13806;DHT22;6974;53.606;9.872;2023-04-06T12:27:14;16.00;91.00
13806;DHT22;6974;53.606;9.872;2023-04-06T12:29:42;15.90;91.10
13806;DHT22;6974;53.606;9.872;2023-04-06T12:32:09;16.00;91.50
13806;DHT22;6974;53.606;9.872;2023-04-06T12:34:37;15.90;91.70
13806;DHT22;6974;53.606;9.872;2023-04-06T12:37:04;16.00;91.60
13806;DHT22;6974;53.606;9.872;2023-04-06T12:39:31;15.90;90.90
13806;DHT22;6974;53.606;9.872;2023-04-06T12:41:59;15.90;91.50
13806;DHT22;6974;53.606;9.872;2023-04-06T12:44:27;15.80;91.50
13806;DHT22;6974;53.606;9.872;2023-04-06T12:46:53;15.80;91.40
13806;DHT22;6974;53.606;9.872;2023-04-06T12:49:20;15.80;90.40
13806;DHT22;6974;53.606;9.872;2023-04-06T12:51:47;15.80;91.00
13806;DHT22;6974;53.606;9.872;2023-04-06T12:54:15;15.90;90.80
13806;DHT22;6974;53.606;9.872;2023-04-06T12:56:42;15.80;87.70
13806;DHT22;6974;53.606;9.872;2023-04-06T12:59:10;15.70;91.00
13806;DHT22;6974;53.606;9.872;2023-04-06T13:01:38;15.80;91.40
13806;DHT22;6974;53.606;9.872;2023-04-06T13:04:04;15.80;91.20
13806;DHT22;6974;53.606;9.872;2023-04-06T13:06:31;15.80;91.00
13806;DHT22;6974;53.606;9.872;2023-04-06T13:08:58;15.90;90.40
13806;DHT22;6974;53.606;9.872;2023-04-06T13:11:26;15.90;91.00
13806;DHT22;6974;53.606;9.872;2023-04-06T13:13:53;15.90;91.30
13806;DHT22;6974;53.606;9.872;2023-04-06T13:16:21;15.90;90.50
13806;DHT22;6974;53.606;9.872;2023-04-06T13:18:48;16.00;90.70
13806;DHT22;6974;53.606;9.872;2023-04-06T13:21:16;16.10;90.10
13806;DHT22;6974;53.606;9.872;2023-04-06T13:23:43;16.20;89.50
13806;DHT22;6974;53.606;9.872;2023-04-06T13:26:10;16.30;86.80
13806;DHT22;6974;53.606;9.872;2023-04-06T13:28:38;16.40;89.80
13806;DHT22;6974;53.606;9.872;2023-04-06T13:31:06;16.40;88.90
13806;DHT22;6974;53.606;9.872;2023-04-06T13:33:35;16.50;88.30
13806;DHT22;6974;53.606;9.872;2023-04-06T13:36:03;16.50;88.60
13806;DHT22;6974;53.606;9.872;2023-04-06T13:38:30;16.60;89.60
13806;DHT22;6974;53.606;9.872;2023-04-06T13:40:57;16.50;88.70
13806;DHT22;6974;53.606;9.872;2023-04-06T13:43:24;16.50;87.50
13806;DHT22;6974;53.606;9.872;2023-04-06T13:45:53;16.40;87.00
13806;DHT22;6974;53.606;9.872;2023-04-06T13:48:21;16.40;86.70
13806;DHT22;6974;53.606;9.872;2023-04-06T13:50:49;16.40;86.30
13806;DHT22;6974;53.606;9.872;2023-04-06T13:53:16;16.50;87.90
13806;DHT22;6974;53.606;9.872;2023-04-06T13:55:43;16.60;86.40
13806;DHT22;6974;53.606;9.872;2023-04-06T13:58:10;16.60;84.10
13806;DHT22;6974;53.606;9.872;2023-04-06T14:00:37;16.60;84.00
13806;DHT22;6974;53.606;9.872;2023-04-06T14:03:05;16.70;84.00
13806;DHT22;6974;53.606;9.872;2023-04-06T14:05:32;16.80;82.30
13806;DHT22;6974;53.606;9.872;2023-04-06T14:08:01;16.90;81.10
13806;DHT22;6974;53.606;9.872;2023-04-06T14:10:28;16.70;81.00
13806;DHT22;6974;53.606;9.872;2023-04-06T14:12:55;16.60;82.00
13806;DHT22;6974;53.606;9.872;2023-04-06T14:15:23;16.60;79.50
13806;DHT22;6974;53.606;9.872;2023-04-06T14:17:50;16.60;80.30
13806;DHT22;6974;53.606;9.872;2023-04-06T14:20:18;16.60;78.50
13806;DHT22;6974;53.606;9.872;2023-04-06T14:22:45;16.60;79.70
13806;DHT22;6974;53.606;9.872;2023-04-06T14:25:13;16.50;80.00
13806;DHT22;6974;53.606;9.872;2023-04-06T14:27:42;16.70;81.20
13806;DHT22;6974;53.606;9.872;2023-04-06T14:30:09;16.80;81.40
13806;DHT22;6974;53.606;9.872;2023-04-06T14:32:37;17.00;79.70
13806;DHT22;6974;53.606;9.872;2023-04-06T14:35:04;17.00;78.50
13806;DHT22;6974;53.606;9.872;2023-04-06T14:37:31;17.00;77.90
13806;DHT22;6974;53.606;9.872;2023-04-06T14:39:58;16.80;77.60
13806;DHT22;6974;53.606;9.872;2023-04-06T14:42:26;16.70;79.80
13806;DHT22;6974;53.606;9.872;2023-04-06T14:44:53;16.80;79.70
13806;DHT22;6974;53.606;9.872;2023-04-06T14:47:20;16.90;80.30
13806;DHT22;6974;53.606;9.872;2023-04-06T14:49:47;17.00;80.90
13806;DHT22;6974;53.606;9.872;2023-04-06T14:52:14;16.90;82.10
13806;DHT22;6974;53.606;9.872;2023-04-06T14:54:41;17.00;83.70
13806;DHT22;6974;53.606;9.872;2023-04-06T14:57:08;17.10;79.80
13806;DHT22;6974;53.606;9.872;2023-04-06T14:59:36;17.20;79.60
13806;DHT22;6974;53.606;9.872;2023-04-06T15:02:04;17.30;81.20
13806;DHT22;6974;53.606;9.872;2023-04-06T15:04:34;17.10;80.80
13806;DHT22;6974;53.606;9.872;2023-04-06T15:07:00;16.90;80.60
13806;DHT22;6974;53.606;9.872;2023-04-06T15:09:27;16.80;79.00
13806;DHT22;6974;53.606;9.872;2023-04-06T15:11:54;16.80;81.90
13806;DHT22;6974;53.606;9.872;2023-04-06T15:14:22;16.90;82.30
13806;DHT22;6974;53.606;9.872;2023-04-06T15:16:50;17.00;82.90
13806;DHT22;6974;53.606;9.872;2023-04-06T15:19:17;16.90;81.90
13806;DHT22;6974;53.606;9.872;2023-04-06T15:21:43;16.90;83.60
13806;DHT22;6974;53.606;9.872;2023-04-06T15:24:10;17.00;82.70
13806;DHT22;6974;53.606;9.872;2023-04-06T15:26:37;17.00;79.50
13806;DHT22;6974;53.606;9.872;2023-04-06T15:29:04;17.00;81.40
13806;DHT22;6974;53.606;9.872;2023-04-06T15:31:31;17.00;80.90
13806;DHT22;6974;53.606;9.872;2023-04-06T15:34:00;16.90;80.90
13806;DHT22;6974;53.606;9.872;2023-04-06T15:36:28;17.00;80.10
13806;DHT22;6974;53.606;9.872;2023-04-06T15:38:56;16.80;81.30
13806;DHT22;6974;53.606;9.872;2023-04-06T15:41:23;16.80;79.60
13806;DHT22;6974;53.606;9.872;2023-04-06T15:43:51;16.80;82.60
13806;DHT22;6974;53.606;9.872;2023-04-06T15:46:19;16.60;80.40
13806;DHT22;6974;53.606;9.872;2023-04-06T15:48:46;16.40;82.20
13806;DHT22;6974;53.606;9.872;2023-04-06T15:51:14;16.30;83.30
13806;DHT22;6974;53.606;9.872;2023-04-06T15:53:42;16.10;82.90
13806;DHT22;6974;53.606;9.872;2023-04-06T15:56:09;16.00;83.90
13806;DHT22;6974;53.606;9.872;2023-04-06T15:58:36;15.90;83.50